createdAt,value
2022-11-29T00:00:45.453Z,74.40
2022-11-29T00:03:12.118Z,74.64
2022-11-29T00:05:38.576Z,74.87
2022-11-29T00:08:05.099Z,75.76
2022-11-29T00:10:31.468Z,75.06
2022-11-29T00:12:57.822Z,76.17
2022-11-29T00:15:24.233Z,75.62
2022-11-29T00:17:50.622Z,75.83
2022-11-29T00:20:17.100Z,75.78
2022-11-29T00:22:43.553Z,75.58
2022-11-29T00:25:09.972Z,75.62
2022-11-29T00:27:36.392Z,74.85
2022-11-29T00:30:03.656Z,74.72
2022-11-29T00:32:30.068Z,76.39
2022-11-29T00:34:59.386Z,75.50
2022-11-29T00:37:26.085Z,75.56
2022-11-29T00:39:52.484Z,75.21
2022-11-29T00:42:20.467Z,76.22
2022-11-29T00:44:46.991Z,74.51
2022-11-29T00:47:13.383Z,75.14
2022-11-29T00:49:39.869Z,75.18
2022-11-29T00:52:06.316Z,75.35
2022-11-29T00:54:32.701Z,75.93
2022-11-29T00:56:59.113Z,75.81
2022-11-29T00:59:25.868Z,74.69
2022-11-29T01:01:52.298Z,75.47
2022-11-29T01:04:19.089Z,75.78
2022-11-29T01:06:45.533Z,74.85
2022-11-29T01:09:11.972Z,75.62
2022-11-29T01:11:38.442Z,74.82
2022-11-29T01:14:05.271Z,75.11
2022-11-29T01:16:32.471Z,75.68
2022-11-29T01:18:58.993Z,75.73
2022-11-29T01:21:25.439Z,74.86
2022-11-29T01:23:53.119Z,75.94
2022-11-29T01:26:22.423Z,75.69
2022-11-29T01:28:52.113Z,75.10
2022-11-29T01:31:25.373Z,74.88
2022-11-29T01:34:00.979Z,76.35
2022-11-29T01:36:28.443Z,75.49
2022-11-29T01:38:55.137Z,76.38
2022-11-29T01:41:25.118Z,75.10
2022-11-29T01:44:28.393Z,74.54
2022-11-29T01:46:55.596Z,76.06
2022-11-29T01:49:32.236Z,75.94
2022-11-29T01:52:05.394Z,76.40
2022-11-29T01:54:35.507Z,75.08
2022-11-29T01:57:05.726Z,76.76
2022-11-29T01:59:32.720Z,76.65
2022-11-29T02:02:10.130Z,74.81
2022-11-29T02:04:38.180Z,75.21
2022-11-29T02:07:04.906Z,76.44
2022-11-29T02:09:31.297Z,75.63
2022-11-29T02:12:19.042Z,76.14
2022-11-29T02:15:08.051Z,75.75
2022-11-29T02:17:34.414Z,75.31
2022-11-29T02:20:26.476Z,76.58
2022-11-29T02:22:55.979Z,75.36
2022-11-29T02:25:34.113Z,76.13
2022-11-29T02:28:06.472Z,75.09
2022-11-29T02:30:59.152Z,76.04
2022-11-29T02:33:51.612Z,75.50
2022-11-29T02:36:38.258Z,75.88
2022-11-29T02:39:24.528Z,76.30
2022-11-29T02:41:56.695Z,76.27
2022-11-29T02:44:40.409Z,75.72
2022-11-29T02:47:33.960Z,76.56
2022-11-29T02:50:03.353Z,76.23
2022-11-29T02:52:42.074Z,75.96
2022-11-29T02:55:17.996Z,75.62
2022-11-29T02:57:58.760Z,74.71
2022-11-29T03:00:25.642Z,76.16
2022-11-29T03:02:52.120Z,74.97
2022-11-29T03:05:39.718Z,76.81
2022-11-29T03:08:15.090Z,75.91
2022-11-29T03:11:06.245Z,76.39
2022-11-29T03:13:48.033Z,75.61
2022-11-29T03:16:23.289Z,76.60
2022-11-29T03:19:05.377Z,75.52
2022-11-29T03:21:54.756Z,76.61
2022-11-29T03:24:29.536Z,76.49
2022-11-29T03:27:03.754Z,74.86
2022-11-29T03:29:40.320Z,76.43
2022-11-29T03:32:22.632Z,75.87
2022-11-29T03:35:02.851Z,75.85
2022-11-29T03:37:41.725Z,75.91
2022-11-29T03:40:09.849Z,76.62
2022-11-29T03:42:53.833Z,75.19
2022-11-29T03:45:29.807Z,75.70
2022-11-29T03:48:11.738Z,76.58
2022-11-29T03:50:45.024Z,75.65
2022-11-29T03:53:31.196Z,76.23
2022-11-29T03:56:01.118Z,75.77
2022-11-29T03:59:02.702Z,76.69
2022-11-29T04:01:46.570Z,74.80
2022-11-29T04:04:41.858Z,76.79
2022-11-29T04:07:29.895Z,75.07
2022-11-29T04:10:18.466Z,76.04
2022-11-29T04:13:06.844Z,74.92
2022-11-29T04:16:07.512Z,76.32
2022-11-29T04:19:01.207Z,75.49
2022-11-29T04:21:43.596Z,75.70
2022-11-29T04:24:47.598Z,75.37
2022-11-29T04:27:30.118Z,75.31
2022-11-29T04:30:08.745Z,76.71
2022-11-29T04:33:03.120Z,76.82
2022-11-29T04:35:37.908Z,75.72
2022-11-29T04:38:16.276Z,76.21
2022-11-29T04:41:04.211Z,75.92
2022-11-29T04:43:59.577Z,75.97
2022-11-29T04:46:35.068Z,76.66
2022-11-29T04:49:20.388Z,76.62
2022-11-29T04:52:14.253Z,75.60
2022-11-29T04:55:30.887Z,75.35
2022-11-29T04:57:57.624Z,75.57
2022-11-29T05:00:24.679Z,76.66
2022-11-29T05:03:04.581Z,76.16
2022-11-29T05:05:51.551Z,76.37
2022-11-29T05:08:37.069Z,76.36
2022-11-29T05:11:26.509Z,75.14
2022-11-29T05:13:53.314Z,75.85
2022-11-29T05:16:40.141Z,75.82
2022-11-29T05:19:27.416Z,75.02
2022-11-29T05:22:39.131Z,75.55
2022-11-29T05:25:42.552Z,75.74
2022-11-29T05:28:30.940Z,74.81
2022-11-29T05:31:16.623Z,74.73
2022-11-29T05:33:55.132Z,75.35
2022-11-29T05:36:33.392Z,75.32
2022-11-29T05:39:29.027Z,76.48
2022-11-29T05:42:23.916Z,76.49
2022-11-29T05:45:02.502Z,76.50
2022-11-29T05:47:44.131Z,75.70
2022-11-29T05:50:45.575Z,76.27
2022-11-29T05:53:17.934Z,76.80
2022-11-29T05:56:09.024Z,75.78
2022-11-29T05:58:51.457Z,75.91
2022-11-29T06:01:50.390Z,75.42
2022-11-29T06:05:00.748Z,75.45
2022-11-29T06:07:41.849Z,76.82
2022-11-29T06:10:18.620Z,77.17
2022-11-29T06:13:13.355Z,77.18
2022-11-29T06:16:23.533Z,76.26
2022-11-29T06:19:07.959Z,76.65
2022-11-29T06:21:45.153Z,75.49
2022-11-29T06:24:39.062Z,75.99
2022-11-29T06:27:34.449Z,76.06
2022-11-29T06:30:06.874Z,76.20
2022-11-29T06:33:01.747Z,75.26
2022-11-29T06:35:37.246Z,76.50
2022-11-29T06:38:16.780Z,77.29
2022-11-29T06:40:43.829Z,75.44
2022-11-29T06:43:10.492Z,75.93
2022-11-29T06:45:37.420Z,75.39
2022-11-29T06:48:06.569Z,75.40
2022-11-29T06:51:03.144Z,76.20
2022-11-29T06:54:19.298Z,75.68
2022-11-29T06:57:35.031Z,76.48
2022-11-29T07:00:09.143Z,75.73
2022-11-29T07:02:48.622Z,76.04
2022-11-29T07:05:28.027Z,75.89
2022-11-29T07:07:57.342Z,76.98
2022-11-29T07:10:24.920Z,76.62
2022-11-29T07:12:51.639Z,76.89
2022-11-29T07:15:21.579Z,75.63
2022-11-29T07:17:56.864Z,76.56
2022-11-29T07:20:34.629Z,76.39
2022-11-29T07:23:19.823Z,77.67
2022-11-29T07:26:16.979Z,76.66
2022-11-29T07:28:55.564Z,76.95
2022-11-29T07:31:41.633Z,76.79
2022-11-29T07:34:22.712Z,76.84
2022-11-29T07:37:10.256Z,77.07
2022-11-29T07:39:51.907Z,76.56
2022-11-29T07:42:21.205Z,75.93
2022-11-29T07:44:59.683Z,75.48
2022-11-29T07:47:26.930Z,77.01
2022-11-29T07:49:55.432Z,75.40
2022-11-29T07:52:21.910Z,76.38
2022-11-29T07:54:48.527Z,76.65
2022-11-29T07:57:14.958Z,77.39
2022-11-29T07:59:41.359Z,76.88
2022-11-29T08:02:11.589Z,76.00
2022-11-29T08:04:44.279Z,77.01
2022-11-29T08:07:11.081Z,76.20
2022-11-29T08:09:37.512Z,76.41
2022-11-29T08:12:04.381Z,76.30
2022-11-29T08:14:33.906Z,77.94
2022-11-29T08:17:00.308Z,76.07
2022-11-29T08:19:26.681Z,77.10
2022-11-29T08:21:53.820Z,76.49
2022-11-29T08:24:20.281Z,77.01
2022-11-29T08:26:46.962Z,76.61
2022-11-29T08:29:13.493Z,76.71
2022-11-29T08:31:39.969Z,76.31
2022-11-29T08:34:07.261Z,76.49
2022-11-29T08:36:34.222Z,75.72
2022-11-29T08:39:08.962Z,75.81
2022-11-29T08:41:36.413Z,76.08
2022-11-29T08:44:04.827Z,77.49
2022-11-29T08:46:49.596Z,76.62
2022-11-29T08:49:16.281Z,76.29
2022-11-29T08:51:42.677Z,77.05
2022-11-29T08:54:09.336Z,75.31
2022-11-29T08:59:23.807Z,75.37
2022-11-29T09:01:50.225Z,76.07
2022-11-29T09:04:17.019Z,76.64
2022-11-29T09:06:44.365Z,76.79
2022-11-29T09:09:10.791Z,76.57
2022-11-29T09:11:37.193Z,77.24
2022-11-29T09:14:06.201Z,76.82
2022-11-29T09:16:35.601Z,75.45
2022-11-29T09:19:02.989Z,77.02
2022-11-29T09:21:31.080Z,76.42
2022-11-29T09:24:00.405Z,76.09
2022-11-29T09:26:31.844Z,76.52
2022-11-29T09:29:01.101Z,75.37
2022-11-29T09:31:29.785Z,76.04
2022-11-29T09:33:57.006Z,76.20
2022-11-29T09:36:28.070Z,76.66
2022-11-29T09:38:55.519Z,75.44
2022-11-29T09:41:52.423Z,75.64
2022-11-29T09:44:39.949Z,76.43
2022-11-29T09:47:31.184Z,75.30
2022-11-29T09:50:31.937Z,75.00
2022-11-29T09:53:22.069Z,74.71
2022-11-29T09:56:23.370Z,74.25
2022-11-29T09:59:01.812Z,74.83
2022-11-29T10:02:08.924Z,75.07
2022-11-29T10:04:44.333Z,75.22
2022-11-29T10:07:36.239Z,74.71
2022-11-29T10:10:09.361Z,75.44
2022-11-29T10:13:15.596Z,75.14
2022-11-29T10:15:44.575Z,74.41
2022-11-29T10:18:13.758Z,75.71
2022-11-29T10:20:47.532Z,75.28
2022-11-29T10:23:31.672Z,74.71
2022-11-29T10:25:58.882Z,75.36
2022-11-29T10:28:30.596Z,74.30
2022-11-29T10:31:08.396Z,74.80
2022-11-29T10:33:40.228Z,75.36
2022-11-29T10:36:25.903Z,74.24
2022-11-29T10:38:58.946Z,75.09
2022-11-29T10:41:26.817Z,74.56
2022-11-29T10:43:56.665Z,74.46
2022-11-29T10:46:31.049Z,75.00
2022-11-29T10:49:13.472Z,75.60
2022-11-29T10:51:39.973Z,75.46
2022-11-29T10:54:35.573Z,74.30
2022-11-29T10:57:02.450Z,74.29
2022-11-29T10:59:30.901Z,74.42
2022-11-29T11:01:57.692Z,74.79
2022-11-29T11:04:35.329Z,74.61
2022-11-29T11:07:06.113Z,74.22
2022-11-29T11:09:51.153Z,73.67
2022-11-29T11:12:23.635Z,73.64
2022-11-29T11:14:51.430Z,74.10
2022-11-29T11:17:29.972Z,73.83
2022-11-29T11:20:00.798Z,73.64
2022-11-29T11:22:28.867Z,74.25
2022-11-29T11:25:03.413Z,74.37
2022-11-29T11:27:35.205Z,74.07
2022-11-29T11:30:04.149Z,73.84
2022-11-29T11:32:30.536Z,74.58
2022-11-29T11:34:59.826Z,73.73
2022-11-29T11:37:26.223Z,73.74
2022-11-29T11:40:17.693Z,73.21
2022-11-29T11:42:44.379Z,74.47
2022-11-29T11:45:10.724Z,73.79
2022-11-29T11:47:43.910Z,74.24
2022-11-29T11:50:14.808Z,73.79
2022-11-29T11:52:53.862Z,73.51
2022-11-29T11:55:33.834Z,74.22
2022-11-29T11:58:09.350Z,74.01
2022-11-29T12:03:50.612Z,72.94
2022-11-29T12:06:45.038Z,74.07
2022-11-29T12:09:30.786Z,74.30
2022-11-29T12:12:03.600Z,73.73
2022-11-29T12:14:51.937Z,73.61
2022-11-29T12:17:27.963Z,74.30
2022-11-29T12:20:01.808Z,73.96
2022-11-29T12:22:35.429Z,74.14
2022-11-29T12:25:05.923Z,73.06
2022-11-29T12:27:32.339Z,74.57
2022-11-29T12:29:58.862Z,74.11
2022-11-29T12:32:43.808Z,73.49
2022-11-29T12:35:25.419Z,73.61
2022-11-29T12:38:04.537Z,73.38
2022-11-29T12:40:50.929Z,73.54
2022-11-29T12:43:51.355Z,73.05
2022-11-29T12:46:25.836Z,73.22
2022-11-29T12:51:32.431Z,73.16
2022-11-29T12:54:32.781Z,73.51
2022-11-29T12:57:24.300Z,73.56
2022-11-29T13:00:16.882Z,73.49
2022-11-29T13:02:52.710Z,73.51
2022-11-29T13:05:31.267Z,73.80
2022-11-29T13:08:09.566Z,72.75
2022-11-29T13:10:35.908Z,73.17
2022-11-29T13:13:24.459Z,73.45
2022-11-29T13:15:56.267Z,73.76
2022-11-29T13:18:42.743Z,74.14
2022-11-29T13:21:21.003Z,74.09
2022-11-29T13:24:09.370Z,74.20
2022-11-29T13:26:39.010Z,73.24
2022-11-29T13:29:07.437Z,73.56
2022-11-29T13:31:34.338Z,73.87
2022-11-29T13:34:18.456Z,74.18
2022-11-29T13:36:44.819Z,73.21
2022-11-29T13:39:39.960Z,72.96
2022-11-29T13:42:21.848Z,74.29
2022-11-29T13:45:21.449Z,73.39
2022-11-29T13:47:53.613Z,74.19
2022-11-29T13:50:42.834Z,74.04
2022-11-29T13:53:24.255Z,74.36
2022-11-29T13:56:00.130Z,73.68
2022-11-29T13:58:37.240Z,73.08
2022-11-29T14:01:12.254Z,74.49
2022-11-29T14:03:41.736Z,73.44
2022-11-29T14:06:13.252Z,74.32
2022-11-29T14:09:17.067Z,74.04
2022-11-29T14:11:43.443Z,73.23
2022-11-29T14:14:24.881Z,72.71
2022-11-29T14:16:57.791Z,73.32
2022-11-29T14:19:33.533Z,73.89
2022-11-29T14:22:06.343Z,73.30
2022-11-29T14:24:32.756Z,73.50
2022-11-29T14:27:12.449Z,73.47
2022-11-29T14:29:52.563Z,73.11
2022-11-29T14:32:31.052Z,74.07
2022-11-29T14:35:01.141Z,73.38
2022-11-29T14:38:00.557Z,73.40
2022-11-29T14:40:42.197Z,73.30
2022-11-29T14:43:28.976Z,73.38
2022-11-29T14:46:13.892Z,74.03
2022-11-29T14:49:02.209Z,73.85
2022-11-29T14:51:31.357Z,73.54
2022-11-29T14:54:16.498Z,73.60
2022-11-29T14:56:44.939Z,72.96
2022-11-29T14:59:42.782Z,73.54
2022-11-29T15:02:37.827Z,74.06
2022-11-29T15:05:18.780Z,73.26
2022-11-29T15:08:20.659Z,73.53
2022-11-29T15:10:51.390Z,74.23
2022-11-29T15:13:31.604Z,73.60
2022-11-29T15:16:27.354Z,74.42
2022-11-29T15:18:59.878Z,73.31
2022-11-29T15:22:00.075Z,73.89
2022-11-29T15:24:28.806Z,73.78
2022-11-29T15:27:00.969Z,73.36
2022-11-29T15:29:28.766Z,74.19
2022-11-29T15:31:58.808Z,72.62
2022-11-29T15:34:31.402Z,73.13
2022-11-29T15:36:59.437Z,73.70
2022-11-29T15:39:32.475Z,74.18
2022-11-29T15:42:11.137Z,74.26
2022-11-29T15:44:38.057Z,74.70
2022-11-29T15:47:26.421Z,73.62
2022-11-29T15:49:54.141Z,74.01
2022-11-29T15:52:38.271Z,74.71
2022-11-29T15:55:10.885Z,73.81
2022-11-29T15:57:43.952Z,73.90
2022-11-29T16:00:20.288Z,74.10
2022-11-29T16:02:52.204Z,73.55
2022-11-29T16:05:22.358Z,73.22
2022-11-29T16:07:56.251Z,73.30
2022-11-29T16:10:35.454Z,73.47
2022-11-29T16:13:07.582Z,73.94
2022-11-29T16:15:37.353Z,74.18
2022-11-29T16:18:15.179Z,74.10
2022-11-29T16:20:42.070Z,73.71
2022-11-29T16:23:14.203Z,74.18
2022-11-29T16:26:00.444Z,73.74
2022-11-29T16:28:50.359Z,73.40
2022-11-29T16:31:19.067Z,74.01
2022-11-29T16:33:49.734Z,74.89
2022-11-29T16:36:24.051Z,74.34
2022-11-29T16:39:04.136Z,75.11
2022-11-29T16:41:38.485Z,75.43
2022-11-29T16:44:06.617Z,74.92
2022-11-29T16:46:45.196Z,75.93
2022-11-29T16:49:33.579Z,75.24
2022-11-29T16:52:02.831Z,75.23
2022-11-29T16:54:34.425Z,74.64
2022-11-29T16:57:05.592Z,74.52
2022-11-29T16:59:32.605Z,75.69
2022-11-29T17:01:59.342Z,74.83
2022-11-29T17:04:26.189Z,75.51
2022-11-29T17:06:56.659Z,75.38
2022-11-29T17:09:26.616Z,76.37
2022-11-29T17:11:54.417Z,76.01
2022-11-29T17:14:21.234Z,75.35
2022-11-29T17:16:52.047Z,76.62
2022-11-29T17:19:22.059Z,75.88
2022-11-29T17:21:48.534Z,75.45
2022-11-29T17:24:18.537Z,75.42
2022-11-29T17:26:45.471Z,75.47
2022-11-29T17:29:14.596Z,76.43
2022-11-29T17:31:43.229Z,77.14
2022-11-29T17:34:10.220Z,76.43
2022-11-29T17:36:37.333Z,77.14
2022-11-29T17:39:05.202Z,77.27
2022-11-29T17:41:32.963Z,77.77
2022-11-29T17:43:59.982Z,76.33
2022-11-29T17:46:34.724Z,78.08
2022-11-29T17:49:06.389Z,77.45
2022-11-29T17:54:19.428Z,77.01
2022-11-29T17:56:45.902Z,77.14
2022-11-29T17:59:12.394Z,77.43
2022-11-29T18:01:38.870Z,77.14
2022-11-29T18:04:06.514Z,77.34
2022-11-29T18:06:40.109Z,77.29
2022-11-29T18:09:09.392Z,77.23
2022-11-29T18:11:45.313Z,77.44
2022-11-29T18:14:17.203Z,77.25
2022-11-29T18:16:45.556Z,77.48
2022-11-29T18:19:14.330Z,78.05
2022-11-29T18:21:40.841Z,77.66
2022-11-29T18:24:09.128Z,77.61
2022-11-29T18:26:37.030Z,77.06
2022-11-29T18:29:04.917Z,77.17
2022-11-29T18:31:33.942Z,77.25
2022-11-29T18:34:02.848Z,77.27
2022-11-29T18:36:32.177Z,77.17
2022-11-29T18:39:05.279Z,77.32
2022-11-29T18:41:32.397Z,77.03
2022-11-29T18:44:07.205Z,78.44
2022-11-29T18:46:36.843Z,77.29
2022-11-29T18:49:06.413Z,77.74
2022-11-29T18:51:34.183Z,77.84
2022-11-29T18:54:01.621Z,77.90
2022-11-29T18:56:31.200Z,78.13
2022-11-29T18:59:00.001Z,78.18
2022-11-29T19:01:29.565Z,78.78
2022-11-29T19:03:58.209Z,79.11
2022-11-29T19:06:35.441Z,78.83
2022-11-29T19:09:06.047Z,78.41
2022-11-29T19:11:33.607Z,77.57
2022-11-29T19:14:03.212Z,77.72
2022-11-29T19:16:33.046Z,77.63
2022-11-29T19:19:00.915Z,77.29
2022-11-29T19:23:57.798Z,78.14
2022-11-29T19:26:26.571Z,79.22
2022-11-29T19:28:54.294Z,78.57
2022-11-29T19:31:24.741Z,78.89
2022-11-29T19:33:52.644Z,78.24
2022-11-29T19:36:22.283Z,77.92
2022-11-29T19:38:53.429Z,78.92
2022-11-29T19:41:25.227Z,79.45
2022-11-29T19:43:51.938Z,78.38
2022-11-29T19:46:21.608Z,77.86
2022-11-29T19:48:48.580Z,78.51
2022-11-29T19:51:17.516Z,77.74
2022-11-29T19:53:45.413Z,78.81
2022-11-29T19:56:16.722Z,78.30
2022-11-29T19:58:44.164Z,78.87
2022-11-29T20:01:12.474Z,78.48
2022-11-29T20:03:40.443Z,79.00
2022-11-29T20:06:09.350Z,78.51
2022-11-29T20:08:37.367Z,77.85
2022-11-29T20:11:08.287Z,78.58
2022-11-29T20:13:34.791Z,78.33
2022-11-29T20:16:03.465Z,78.44
2022-11-29T20:18:31.754Z,77.49
2022-11-29T20:21:06.811Z,77.45
2022-11-29T20:23:34.082Z,76.79
2022-11-29T20:26:01.726Z,77.13
2022-11-29T20:28:28.325Z,77.42
2022-11-29T20:30:54.998Z,78.19
2022-11-29T20:33:24.974Z,77.35
2022-11-29T20:36:05.404Z,77.51
2022-11-29T20:38:44.135Z,76.79
2022-11-29T20:41:39.159Z,76.44
2022-11-29T20:44:05.835Z,77.78
2022-11-29T20:46:32.466Z,76.54
2022-11-29T20:49:04.701Z,77.96
2022-11-29T20:51:40.203Z,78.10
2022-11-29T20:54:07.022Z,77.29
2022-11-29T20:56:33.423Z,76.25
2022-11-29T20:58:59.837Z,77.56
2022-11-29T21:01:26.352Z,77.32
2022-11-29T21:03:52.848Z,76.12
2022-11-29T21:06:19.417Z,76.87
2022-11-29T21:08:45.912Z,76.72
2022-11-29T21:11:12.681Z,77.36
2022-11-29T21:13:39.428Z,76.69
2022-11-29T21:16:06.450Z,76.05
2022-11-29T21:18:33.799Z,76.15
2022-11-29T21:21:21.475Z,76.38
2022-11-29T21:24:02.093Z,75.82
2022-11-29T21:26:52.844Z,76.76
2022-11-29T21:29:21.790Z,76.16
2022-11-29T21:31:50.551Z,77.14
2022-11-29T21:34:17.557Z,75.59
2022-11-29T21:36:44.947Z,76.29
2022-11-29T21:39:14.785Z,77.12
2022-11-29T21:41:41.553Z,76.33
2022-11-29T21:44:08.568Z,76.13
2022-11-29T21:46:35.488Z,76.84
2022-11-29T21:49:02.047Z,75.94
2022-11-29T21:51:28.421Z,75.75
2022-11-29T21:53:54.823Z,75.59
2022-11-29T21:56:21.383Z,76.34
2022-11-29T21:58:47.881Z,76.89
2022-11-29T22:01:17.599Z,75.39
2022-11-29T22:03:44.528Z,76.09
2022-11-29T22:06:18.508Z,76.68
2022-11-29T22:08:44.944Z,76.68
2022-11-29T22:11:16.809Z,76.21
2022-11-29T22:14:02.856Z,76.77
2022-11-29T22:16:29.805Z,76.83
2022-11-29T22:18:56.472Z,76.22
2022-11-29T22:21:22.897Z,76.65
2022-11-29T22:23:49.519Z,75.98
2022-11-29T22:26:15.920Z,76.16
2022-11-29T22:28:42.385Z,76.19
2022-11-29T22:31:11.684Z,75.95
2022-11-29T22:33:39.053Z,76.16
2022-11-29T22:36:10.432Z,76.72
2022-11-29T22:38:37.424Z,75.49
2022-11-29T22:41:09.347Z,75.75
2022-11-29T22:43:36.739Z,76.14
2022-11-29T22:46:07.773Z,76.14
2022-11-29T22:48:38.748Z,77.04
2022-11-29T22:51:11.087Z,77.13
2022-11-29T22:53:39.661Z,76.91
2022-11-29T22:56:08.627Z,75.50
2022-11-29T22:58:35.608Z,76.79
2022-11-29T23:01:02.933Z,76.85
2022-11-29T23:03:29.768Z,75.31
2022-11-29T23:06:02.330Z,76.46
2022-11-29T23:08:28.761Z,75.62
2022-11-29T23:10:56.924Z,75.83
2022-11-29T23:13:23.518Z,75.45
2022-11-29T23:15:51.479Z,76.26
2022-11-29T23:18:18.877Z,74.97
2022-11-29T23:20:45.299Z,76.05
2022-11-29T23:23:11.786Z,74.83
2022-11-29T23:25:49.494Z,76.11
2022-11-29T23:28:17.008Z,75.36
2022-11-29T23:30:43.425Z,74.81
2022-11-29T23:33:09.923Z,75.49
2022-11-29T23:35:36.315Z,76.04
2022-11-29T23:38:02.705Z,75.67
2022-11-29T23:40:29.084Z,74.52
2022-11-29T23:42:55.530Z,76.08
2022-11-29T23:45:21.965Z,76.07
2022-11-29T23:47:48.415Z,74.76
2022-11-29T23:50:14.846Z,74.77
2022-11-29T23:52:41.223Z,75.22
2022-11-29T23:55:08.666Z,74.68
2022-11-29T23:57:35.048Z,75.61
